Time,TemperatureF,DewpointF,PressureIn,WindDirection,WindDirectionDegrees,WindSpeedMPH,WindSpeedGustMPH,Humidity,HourlyPrecipIn,Conditions,Clouds,dailyrainin,SoftwareType,DateUTC
2013-03-05 00:00:00,14.4,6.4,30.15,East,90,0.0,2.2,70,0.00,,CLR,0.00,VWS V14.01,2013-03-05 05:00:00,
2013-03-05 00:02:00,14.4,6.4,30.15,East,90,0.0,2.2,70,0.00,,CLR,0.00,VWS V14.01,2013-03-05 05:02:00,
2013-03-05 00:03:00,14.4,6.4,30.15,ENE,68,0.0,2.2,70,0.00,,CLR,0.00,VWS V14.01,2013-03-05 05:03:00,
2013-03-05 00:05:00,14.7,6.7,30.15,NE,45,2.0,2.2,70,0.00,,CLR,0.00,VWS V14.01,2013-03-05 05:05:00,
2013-03-05 00:10:00,15.1,7.4,30.15,NE,45,3.1,3.1,71,0.00,,CLR,0.00,VWS V14.01,2013-03-05 05:10:00,
2013-03-05 00:15:00,15.3,7.9,30.15,ENE,68,2.7,3.1,72,0.00,,CLR,0.00,VWS V14.01,2013-03-05 05:15:00,
2013-03-05 00:20:00,15.1,7.7,30.18,NE,45,2.7,3.1,72,0.00,,CLR,0.00,VWS V14.01,2013-03-05 05:20:00,
2013-03-05 00:25:00,15.3,7.9,30.18,NNE,22,1.6,3.1,72,0.00,,CLR,0.00,VWS V14.01,2013-03-05 05:25:00,
2013-03-05 00:30:00,15.1,7.7,30.18,NNE,22,0.0,3.1,72,0.00,,CLR,0.00,VWS V14.01,2013-03-05 05:30:00,
2013-03-05 00:35:00,14.9,7.5,30.18,SSE,158,0.0,3.1,72,0.00,,CLR,0.00,VWS V14.01,2013-03-05 05:35:00,
2013-03-05 00:40:00,14.4,7.0,30.18,SSE,158,0.0,3.1,72,0.00,,CLR,0.00,VWS V14.01,2013-03-05 05:40:00,
2013-03-05 00:45:00,14.2,6.8,30.18,SSE,158,0.0,3.1,72,0.00,,CLR,0.00,VWS V14.01,2013-03-05 05:45:00,
2013-03-05 00:50:00,13.8,6.8,30.18,SSE,158,0.0,3.1,73,0.00,,CLR,0.00,VWS V14.01,2013-03-05 05:50:00,
2013-03-05 00:55:00,13.8,6.8,30.18,East,90,0.0,3.1,73,0.00,,CLR,0.00,VWS V14.01,2013-03-05 05:55:00,
2013-03-05 01:00:00,14.0,7.0,30.18,East,90,0.0,3.1,73,0.00,,CLR,0.00,VWS V14.01,2013-03-05 06:00:00,
2013-03-05 01:05:00,14.2,8.0,30.21,South,180,0.0,3.1,76,0.00,,CLR,0.00,VWS V14.01,2013-03-05 06:05:00,
2013-03-05 01:10:00,14.0,7.6,30.21,SSW,202,0.0,1.3,75,0.00,,CLR,0.00,VWS V14.01,2013-03-05 06:10:00,
2013-03-05 01:15:00,14.2,7.7,30.21,South,180,0.0,1.3,75,0.00,,CLR,0.00,VWS V14.01,2013-03-05 06:15:00,
2013-03-05 01:20:00,14.2,7.4,30.21,ESE,112,0.0,1.3,74,0.00,,CLR,0.00,VWS V14.01,2013-03-05 06:20:00,
2013-03-05 01:25:00,14.0,7.2,30.21,ESE,112,0.0,1.3,74,0.00,,CLR,0.00,VWS V14.01,2013-03-05 06:25:00,
2013-03-05 01:30:00,14.0,7.2,30.21,ENE,68,0.0,1.3,74,0.00,,CLR,0.00,VWS V14.01,2013-03-05 06:30:00,
2013-03-05 01:35:00,14.0,7.2,30.21,ENE,68,2.0,2.0,74,0.00,,CLR,0.00,VWS V14.01,2013-03-05 06:35:00,
2013-03-05 01:41:00,14.0,7.0,30.21,ENE,68,0.0,2.0,73,0.00,,CLR,0.00,VWS V14.01,2013-03-05 06:41:00,
2013-03-05 01:46:00,13.6,6.6,30.21,ENE,68,0.0,2.0,73,0.00,,CLR,0.00,VWS V14.01,2013-03-05 06:46:00,
2013-03-05 01:51:00,13.8,6.8,30.21,ENE,68,2.0,2.0,73,0.00,,CLR,0.00,VWS V14.01,2013-03-05 06:51:00,
2013-03-05 01:56:00,14.2,7.1,30.21,East,90,0.9,2.0,73,0.00,,CLR,0.00,VWS V14.01,2013-03-05 06:56:00,
2013-03-05 02:00:00,13.6,7.5,30.18,East,90,0.0,3.8,76,0.00,,CLR,0.00,VWS V14.01,2013-03-05 07:00:00,
2013-03-05 02:01:00,14.0,7.0,30.21,ENE,68,0.0,2.0,73,0.00,,CLR,0.00,VWS V14.01,2013-03-05 07:01:00,
2013-03-05 02:06:00,14.2,7.1,30.21,ENE,68,3.6,3.8,73,0.00,,CLR,0.00,VWS V14.01,2013-03-05 07:06:00,
2013-03-05 02:11:00,15.1,9.8,30.21,ENE,68,3.6,3.8,79,0.00,,CLR,0.00,VWS V14.01,2013-03-05 07:11:00,
2013-03-05 02:16:00,15.3,10.5,30.21,East,90,3.1,3.8,81,0.00,,CLR,0.00,VWS V14.01,2013-03-05 07:16:00,
2013-03-05 02:21:00,15.4,10.9,30.21,SSE,158,0.0,3.8,82,0.00,,CLR,0.00,VWS V14.01,2013-03-05 07:21:00,
2013-03-05 02:26:00,14.4,8.8,30.21,SE,135,1.3,3.8,78,0.00,,CLR,0.00,VWS V14.01,2013-03-05 07:26:00,
2013-03-05 02:29:00,13.8,7.7,30.21,East,90,0.0,3.8,76,0.00,,CLR,0.00,VWS V14.01,2013-03-05 07:29:00,
2013-03-05 02:31:00,14.0,7.8,30.21,East,90,1.3,3.8,76,0.00,,CLR,0.00,VWS V14.01,2013-03-05 07:31:00,
2013-03-05 02:36:00,13.8,7.7,30.21,East,90,0.0,3.8,76,0.00,,CLR,0.00,VWS V14.01,2013-03-05 07:36:00,
2013-03-05 02:41:00,13.6,7.5,30.21,East,90,0.0,3.8,76,0.00,,CLR,0.00,VWS V14.01,2013-03-05 07:41:00,
2013-03-05 02:46:00,13.6,7.5,30.21,East,90,0.0,3.8,76,0.00,,CLR,0.00,VWS V14.01,2013-03-05 07:46:00,
2013-03-05 02:51:00,13.5,7.3,30.18,East,90,0.0,3.8,76,0.00,,CLR,0.00,VWS V14.01,2013-03-05 07:51:00,
2013-03-05 02:56:00,13.6,7.5,30.18,East,90,0.0,3.8,76,0.00,,CLR,0.00,VWS V14.01,2013-03-05 07:56:00,
2013-03-05 03:00:00,15.1,9.2,30.15,ENE,68,3.8,3.8,77,0.00,,CLR,0.00,VWS V14.01,2013-03-05 08:00:00,
2013-03-05 03:01:00,13.6,7.5,30.18,East,90,0.0,3.8,76,0.00,,CLR,0.00,VWS V14.01,2013-03-05 08:01:00,
2013-03-05 03:06:00,13.6,7.5,30.18,East,90,0.0,3.8,76,0.00,,CLR,0.00,VWS V14.01,2013-03-05 08:06:00,
2013-03-05 03:11:00,13.8,7.7,30.18,SE,135,2.0,2.2,76,0.00,,CLR,0.00,VWS V14.01,2013-03-05 08:11:00,
2013-03-05 03:16:00,14.5,8.1,30.18,SE,135,2.2,2.7,75,0.00,,CLR,0.00,VWS V14.01,2013-03-05 08:16:00,
2013-03-05 03:21:00,14.9,8.4,30.18,SE,135,1.6,2.7,75,0.00,,CLR,0.00,VWS V14.01,2013-03-05 08:21:00,
2013-03-05 03:26:00,14.9,8.4,30.18,SE,135,1.3,2.7,75,0.00,,CLR,0.00,VWS V14.01,2013-03-05 08:26:00,
2013-03-05 03:31:00,14.9,8.4,30.18,SE,135,0.0,2.7,75,0.00,,CLR,0.00,VWS V14.01,2013-03-05 08:31:00,
2013-03-05 03:36:00,14.5,7.8,30.18,SE,135,0.0,2.7,74,0.00,,CLR,0.00,VWS V14.01,2013-03-05 08:36:00,
2013-03-05 03:41:00,14.4,7.6,30.18,SE,135,0.0,2.7,74,0.00,,CLR,0.00,VWS V14.01,2013-03-05 08:41:00,
2013-03-05 03:46:00,14.2,7.4,30.15,SE,135,0.0,2.7,74,0.00,,CLR,0.00,VWS V14.01,2013-03-05 08:46:00,
2013-03-05 03:51:00,14.4,7.9,30.15,East,90,1.6,2.7,75,0.00,,CLR,0.00,VWS V14.01,2013-03-05 08:51:00,
2013-03-05 03:56:00,14.2,7.7,30.15,ENE,68,2.9,2.9,75,0.00,,CLR,0.00,VWS V14.01,2013-03-05 08:56:00,
2013-03-05 04:00:00,15.8,10.2,30.12,East,90,3.6,5.6,78,0.00,,CLR,0.00,VWS V14.01,2013-03-05 09:00:00,
2013-03-05 04:01:00,14.9,8.7,30.15,ENE,68,3.1,3.4,76,0.00,,CLR,0.00,VWS V14.01,2013-03-05 09:01:00,
2013-03-05 04:06:00,15.1,9.2,30.15,ENE,68,3.4,3.4,77,0.00,,CLR,0.00,VWS V14.01,2013-03-05 09:06:00,
2013-03-05 04:11:00,14.9,8.7,30.15,ENE,68,3.4,3.8,76,0.00,,CLR,0.00,VWS V14.01,2013-03-05 09:11:00,
2013-03-05 04:16:00,14.5,8.1,30.15,ENE,68,3.4,3.8,75,0.00,,CLR,0.00,VWS V14.01,2013-03-05 09:16:00,
2013-03-05 04:21:00,14.7,8.8,30.15,ENE,68,3.4,3.8,77,0.00,,CLR,0.00,VWS V14.01,2013-03-05 09:21:00,
2013-03-05 04:26:00,15.1,9.8,30.15,ENE,68,3.6,3.8,79,0.00,,CLR,0.00,VWS V14.01,2013-03-05 09:26:00,
2013-03-05 04:31:00,15.1,9.8,30.15,ENE,68,3.4,3.8,79,0.00,,CLR,0.00,VWS V14.01,2013-03-05 09:31:00,
2013-03-05 04:36:00,14.4,8.5,30.15,ENE,68,3.4,3.8,77,0.00,,CLR,0.00,VWS V14.01,2013-03-05 09:36:00,
2013-03-05 04:42:00,14.7,8.8,30.15,ENE,68,3.4,4.0,77,0.00,,CLR,0.00,VWS V14.01,2013-03-05 09:42:00,
2013-03-05 04:47:00,14.9,9.0,30.12,East,90,3.8,4.0,77,0.00,,CLR,0.00,VWS V14.01,2013-03-05 09:47:00,
2013-03-05 04:52:00,15.3,9.4,30.12,ENE,68,4.5,4.5,77,0.00,,CLR,0.00,VWS V14.01,2013-03-05 09:52:00,
2013-03-05 04:57:00,16.0,10.4,30.12,East,90,3.8,5.6,78,0.00,,CLR,0.00,VWS V14.01,2013-03-05 09:57:00,
2013-03-05 05:00:00,19.9,14.2,30.12,ESE,112,3.1,7.4,78,0.00,,CLR,0.00,VWS V14.01,2013-03-05 10:00:00,
2013-03-05 05:02:00,16.0,10.4,30.12,East,90,3.6,5.6,78,0.00,,CLR,0.00,VWS V14.01,2013-03-05 10:02:00,
2013-03-05 05:07:00,15.8,10.2,30.12,East,90,3.6,5.6,78,0.00,,CLR,0.00,VWS V14.01,2013-03-05 10:07:00,
2013-03-05 05:12:00,16.0,10.1,30.12,East,90,3.8,4.7,77,0.00,,CLR,0.00,VWS V14.01,2013-03-05 10:12:00,
2013-03-05 05:17:00,16.9,11.5,30.15,East,90,6.3,6.3,79,0.00,,CLR,0.00,VWS V14.01,2013-03-05 10:17:00,
2013-03-05 05:22:00,17.4,12.3,30.15,East,90,4.3,6.3,80,0.00,,CLR,0.00,VWS V14.01,2013-03-05 10:22:00,
2013-03-05 05:27:00,18.1,13.0,30.15,ESE,112,3.8,6.3,80,0.00,,CLR,0.00,VWS V14.01,2013-03-05 10:27:00,
2013-03-05 05:32:00,18.5,13.4,30.15,East,90,5.8,6.3,80,0.00,,CLR,0.00,VWS V14.01,2013-03-05 10:32:00,
2013-03-05 05:37:00,18.9,13.4,30.15,East,90,4.0,7.4,79,0.00,,CLR,0.00,VWS V14.01,2013-03-05 10:37:00,
2013-03-05 05:42:00,19.0,13.6,30.15,ESE,112,4.9,7.4,79,0.00,,CLR,0.00,VWS V14.01,2013-03-05 10:42:00,
2013-03-05 05:47:00,19.2,13.8,30.15,ESE,112,4.5,7.4,79,0.00,,CLR,0.00,VWS V14.01,2013-03-05 10:47:00,
2013-03-05 05:52:00,19.4,14.0,30.15,ESE,112,4.9,7.4,79,0.00,,CLR,0.00,VWS V14.01,2013-03-05 10:52:00,
2013-03-05 05:57:00,19.8,14.0,30.15,ENE,68,3.8,7.4,78,0.00,,CLR,0.00,VWS V14.01,2013-03-05 10:57:00,
2013-03-05 06:00:00,21.6,16.4,30.15,East,90,5.8,6.5,80,0.00,,CLR,0.00,VWS V14.01,2013-03-05 11:00:00,
2013-03-05 06:02:00,19.8,14.0,30.12,ESE,112,3.6,7.4,78,0.00,,CLR,0.00,VWS V14.01,2013-03-05 11:02:00,
2013-03-05 06:07:00,19.9,14.2,30.12,ESE,112,4.0,7.4,78,0.00,,CLR,0.00,VWS V14.01,2013-03-05 11:07:00,
2013-03-05 06:12:00,20.1,14.4,30.12,East,90,4.0,4.5,78,0.00,,CLR,0.00,VWS V14.01,2013-03-05 11:12:00,
2013-03-05 06:17:00,20.3,14.6,30.15,ESE,112,3.4,4.7,78,0.00,,CLR,0.00,VWS V14.01,2013-03-05 11:17:00,
2013-03-05 06:22:00,20.3,14.6,30.15,ESE,112,3.1,4.7,78,0.00,,CLR,0.00,VWS V14.01,2013-03-05 11:22:00,
2013-03-05 06:27:00,20.3,14.6,30.15,East,90,2.9,4.7,78,0.00,,CLR,0.00,VWS V14.01,2013-03-05 11:27:00,
2013-03-05 06:32:00,20.5,14.7,30.12,East,90,3.8,4.7,78,0.00,,CLR,0.00,VWS V14.01,2013-03-05 11:32:00,
2013-03-05 06:37:00,20.7,14.9,30.12,East,90,5.4,5.4,78,0.00,,CLR,0.00,VWS V14.01,2013-03-05 11:37:00,
2013-03-05 06:42:00,20.7,14.9,30.12,ESE,112,3.4,5.4,78,0.00,,CLR,0.00,VWS V14.01,2013-03-05 11:42:00,
2013-03-05 06:47:00,20.8,15.1,30.15,ESE,112,3.6,5.4,78,0.00,,CLR,0.00,VWS V14.01,2013-03-05 11:47:00,
2013-03-05 06:52:00,21.0,15.2,30.15,ENE,68,2.9,5.4,78,0.00,,CLR,0.00,VWS V14.01,2013-03-05 11:52:00,
2013-03-05 06:57:00,21.2,15.7,30.15,East,90,4.9,6.5,79,0.00,,CLR,0.00,VWS V14.01,2013-03-05 11:57:00,
2013-03-05 07:00:00,24.4,16.7,30.12,East,90,12.1,12.1,72,0.00,,CLR,0.00,VWS V14.01,2013-03-05 12:00:00,
2013-03-05 07:02:00,21.4,15.9,30.15,East,90,4.9,6.5,79,0.00,,CLR,0.00,VWS V14.01,2013-03-05 12:02:00,
2013-03-05 07:07:00,21.6,16.4,30.15,East,90,5.8,5.8,80,0.00,,CLR,0.00,VWS V14.01,2013-03-05 12:07:00,
2013-03-05 07:12:00,21.9,16.7,30.15,ENE,68,5.4,6.5,80,0.00,,CLR,0.00,VWS V14.01,2013-03-05 12:12:00,
2013-03-05 07:17:00,21.9,17.0,30.15,East,90,6.7,7.4,81,0.00,,CLR,0.00,VWS V14.01,2013-03-05 12:17:00,
2013-03-05 07:23:00,22.3,17.4,30.15,ENE,68,4.5,7.4,81,0.00,,CLR,0.00,VWS V14.01,2013-03-05 12:23:00,
2013-03-05 07:28:00,22.6,17.4,30.15,ESE,112,5.8,7.4,80,0.00,,CLR,0.00,VWS V14.01,2013-03-05 12:28:00,
2013-03-05 07:33:00,22.8,17.3,30.12,East,90,6.5,7.4,79,0.00,,CLR,0.00,VWS V14.01,2013-03-05 12:33:00,
2013-03-05 07:38:00,23.0,17.2,30.12,East,90,5.8,7.4,78,0.00,,CLR,0.00,VWS V14.01,2013-03-05 12:38:00,
2013-03-05 07:43:00,23.4,17.2,30.12,East,90,5.4,7.4,77,0.00,,CLR,0.00,VWS V14.01,2013-03-05 12:43:00,
2013-03-05 07:48:00,23.5,17.1,30.12,East,90,6.3,7.6,76,0.00,,CLR,0.00,VWS V14.01,2013-03-05 12:48:00,
2013-03-05 07:53:00,23.9,17.1,30.12,ESE,112,4.5,7.6,75,0.00,,CLR,0.00,VWS V14.01,2013-03-05 12:53:00,
2013-03-05 07:58:00,24.1,17.0,30.12,ESE,112,9.2,9.4,74,0.00,,CLR,0.00,VWS V14.01,2013-03-05 12:58:00,
2013-03-05 08:00:00,28.2,15.8,30.09,ESE,112,8.1,13.2,59,0.00,,CLR,0.00,VWS V14.01,2013-03-05 13:00:00,
2013-03-05 08:04:00,24.4,17.0,30.12,East,90,7.6,9.4,73,0.00,,CLR,0.00,VWS V14.01,2013-03-05 13:04:00,
2013-03-05 08:09:00,24.6,16.6,30.12,ESE,112,8.5,12.1,71,0.00,,CLR,0.00,VWS V14.01,2013-03-05 13:09:00,
2013-03-05 08:14:00,24.8,16.8,30.12,ESE,112,9.0,12.1,71,0.00,,CLR,0.00,VWS V14.01,2013-03-05 13:14:00,
2013-03-05 08:19:00,25.5,16.8,30.12,ESE,112,6.5,12.8,69,0.00,,CLR,0.00,VWS V14.01,2013-03-05 13:19:00,
2013-03-05 08:24:00,25.9,16.5,30.12,ESE,112,8.1,12.8,67,0.00,,CLR,0.00,VWS V14.01,2013-03-05 13:24:00,
2013-03-05 08:29:00,26.4,16.6,30.12,East,90,10.1,12.8,66,0.00,,CLR,0.00,VWS V14.01,2013-03-05 13:29:00,
2013-03-05 08:34:00,27.0,16.1,30.12,ESE,112,6.3,12.8,63,0.00,,CLR,0.00,VWS V14.01,2013-03-05 13:34:00,
2013-03-05 08:39:00,27.7,16.0,30.12,ESE,112,7.4,12.8,61,0.00,,CLR,0.00,VWS V14.01,2013-03-05 13:39:00,
2013-03-05 08:44:00,27.7,15.6,30.12,ESE,112,6.9,12.8,60,0.00,,CLR,0.00,VWS V14.01,2013-03-05 13:44:00,
2013-03-05 08:49:00,28.0,15.6,30.09,East,90,5.8,12.8,59,0.00,,CLR,0.00,VWS V14.01,2013-03-05 13:49:00,
2013-03-05 08:54:00,28.2,15.8,30.09,ESE,112,7.4,12.8,59,0.00,,CLR,0.00,VWS V14.01,2013-03-05 13:54:00,
2013-03-05 08:59:00,27.9,15.4,30.09,East,90,9.6,13.2,59,0.00,,CLR,0.00,VWS V14.01,2013-03-05 13:59:00,
2013-03-05 09:00:00,32.2,16.1,30.09,ESE,112,7.6,13.0,51,0.00,,CLR,0.00,VWS V14.01,2013-03-05 14:00:00,
2013-03-05 09:04:00,28.2,15.8,30.09,ENE,68,9.0,13.2,59,0.00,,CLR,0.00,VWS V14.01,2013-03-05 14:04:00,
2013-03-05 09:09:00,28.8,15.9,30.09,ESE,112,5.4,8.1,58,0.00,,CLR,0.00,VWS V14.01,2013-03-05 14:09:00,
2013-03-05 09:14:00,29.1,16.2,30.09,ESE,112,6.9,10.7,58,0.00,,CLR,0.00,VWS V14.01,2013-03-05 14:14:00,
2013-03-05 09:19:00,28.9,15.6,30.09,ESE,112,8.5,13.0,57,0.00,,CLR,0.00,VWS V14.01,2013-03-05 14:19:00,
2013-03-05 09:24:00,29.7,15.5,30.09,East,90,8.7,13.0,55,0.00,,CLR,0.00,VWS V14.01,2013-03-05 14:24:00,
2013-03-05 09:29:00,30.4,16.2,30.09,ESE,112,11.0,13.0,55,0.00,,CLR,0.00,VWS V14.01,2013-03-05 14:29:00,
2013-03-05 09:34:00,32.2,17.4,30.06,East,90,5.4,13.0,54,0.00,,CLR,0.00,VWS V14.01,2013-03-05 14:34:00,
2013-03-05 09:39:00,32.4,16.7,30.06,ESE,112,5.6,13.0,52,0.00,,CLR,0.00,VWS V14.01,2013-03-05 14:39:00,
2013-03-05 09:44:00,33.6,17.9,30.06,East,90,8.7,13.0,52,0.00,,CLR,0.00,VWS V14.01,2013-03-05 14:44:00,
2013-03-05 09:49:00,33.6,17.0,30.09,ESE,112,7.6,13.0,50,0.00,,CLR,0.00,VWS V14.01,2013-03-05 14:49:00,
2013-03-05 09:54:00,32.7,16.1,30.09,ESE,112,9.0,13.0,50,0.00,,CLR,0.00,VWS V14.01,2013-03-05 14:54:00,
2013-03-05 09:59:00,33.1,16.5,30.09,ESE,112,8.5,13.0,50,0.00,,CLR,0.00,VWS V14.01,2013-03-05 14:59:00,
2013-03-05 10:00:00,38.5,17.4,30.06,ENE,68,11.4,15.4,42,0.00,,CLR,0.00,VWS V14.01,2013-03-05 15:00:00,
2013-03-05 10:04:00,32.4,16.3,30.09,ESE,112,10.5,13.0,51,0.00,,CLR,0.00,VWS V14.01,2013-03-05 15:04:00,
2013-03-05 10:09:00,32.2,15.6,30.09,East,90,9.8,11.0,50,0.00,,CLR,0.00,VWS V14.01,2013-03-05 15:09:00,
2013-03-05 10:14:00,32.2,15.6,30.09,ESE,112,10.3,12.3,50,0.00,,CLR,0.00,VWS V14.01,2013-03-05 15:14:00,
2013-03-05 10:19:00,32.0,15.9,30.09,East,90,7.4,12.3,51,0.00,,CLR,0.00,VWS V14.01,2013-03-05 15:19:00,
2013-03-05 10:24:00,32.2,16.1,30.09,East,90,10.1,12.5,51,0.00,,CLR,0.00,VWS V14.01,2013-03-05 15:24:00,
2013-03-05 10:29:00,33.1,16.9,30.09,ESE,112,9.2,12.8,51,0.00,,CLR,0.00,VWS V14.01,2013-03-05 15:29:00,
2013-03-05 10:35:00,35.6,17.4,30.09,SE,135,7.6,12.8,47,0.00,,CLR,0.00,VWS V14.01,2013-03-05 15:35:00,
2013-03-05 10:40:00,36.3,17.0,30.09,SE,135,10.1,12.8,45,0.00,,CLR,0.00,VWS V14.01,2013-03-05 15:40:00,
2013-03-05 10:45:00,35.6,15.9,30.09,East,90,10.1,12.8,44,0.00,,CLR,0.00,VWS V14.01,2013-03-05 15:45:00,
2013-03-05 10:50:00,33.6,15.1,30.06,East,90,7.4,12.8,46,0.00,,CLR,0.00,VWS V14.01,2013-03-05 15:50:00,
2013-03-05 10:55:00,34.7,17.0,30.06,ENE,68,12.5,12.8,48,0.00,,CLR,0.00,VWS V14.01,2013-03-05 15:55:00,
2013-03-05 11:00:00,36.0,17.2,30.06,East,90,7.6,15.4,46,0.00,,CLR,0.00,VWS V14.01,2013-03-05 16:00:00,
2013-03-05 11:05:00,38.5,17.4,30.06,East,90,11.0,15.4,42,0.00,,CLR,0.00,VWS V14.01,2013-03-05 16:05:00,
2013-03-05 11:10:00,37.6,16.6,30.06,East,90,10.1,12.8,42,0.00,,CLR,0.00,VWS V14.01,2013-03-05 16:10:00,
2013-03-05 11:15:00,37.2,16.8,30.06,ENE,68,10.3,12.8,43,0.00,,CLR,0.00,VWS V14.01,2013-03-05 16:15:00,
2013-03-05 11:20:00,40.1,18.9,30.03,ESE,112,6.0,12.8,42,0.00,,CLR,0.00,VWS V14.01,2013-03-05 16:20:00,
2013-03-05 11:25:00,37.9,15.8,30.03,ESE,112,5.8,12.8,40,0.00,,CLR,0.00,VWS V14.01,2013-03-05 16:25:00,
2013-03-05 11:30:00,36.7,15.2,30.03,East,90,10.7,12.8,41,0.00,,CLR,0.00,VWS V14.01,2013-03-05 16:30:00,
2013-03-05 11:35:00,36.5,16.1,30.03,ENE,68,11.2,12.8,43,0.00,,CLR,0.00,VWS V14.01,2013-03-05 16:35:00,
2013-03-05 11:40:00,36.0,16.2,30.03,ESE,112,8.1,12.8,44,0.00,,CLR,0.00,VWS V14.01,2013-03-05 16:40:00,
2013-03-05 11:45:00,37.6,17.1,30.03,ESE,112,6.3,12.8,43,0.00,,CLR,0.00,VWS V14.01,2013-03-05 16:45:00,
2013-03-05 11:50:00,38.3,16.7,30.00,ESE,112,4.9,12.8,41,0.00,,CLR,0.00,VWS V14.01,2013-03-05 16:50:00,
2013-03-05 11:55:00,35.8,15.5,30.00,ENE,68,11.9,12.8,43,0.00,,CLR,0.00,VWS V14.01,2013-03-05 16:55:00,
2013-03-05 12:00:00,35.4,15.7,30.00,ENE,68,8.7,12.8,44,0.00,,CLR,0.00,VWS V14.01,2013-03-05 17:00:00,
2013-03-05 12:05:00,40.5,19.7,30.03,East,90,5.8,12.8,43,0.00,,CLR,0.00,VWS V14.01,2013-03-05 17:05:00,
2013-03-05 12:10:00,38.3,16.7,30.03,East,90,7.6,12.5,41,0.00,,CLR,0.00,VWS V14.01,2013-03-05 17:10:00,
2013-03-05 12:15:00,38.7,17.0,30.03,ESE,112,9.6,12.5,41,0.00,,CLR,0.00,VWS V14.01,2013-03-05 17:15:00,
2013-03-05 12:20:00,37.4,17.0,30.03,ENE,68,13.2,13.2,43,0.00,,CLR,0.00,VWS V14.01,2013-03-05 17:20:00,
2013-03-05 12:25:00,37.8,16.8,30.03,ESE,112,13.9,15.4,42,0.00,,CLR,0.00,VWS V14.01,2013-03-05 17:25:00,
2013-03-05 12:30:00,37.2,16.8,30.03,East,90,11.0,15.4,43,0.00,,CLR,0.00,VWS V14.01,2013-03-05 17:30:00,
2013-03-05 12:35:00,37.9,17.5,30.03,East,90,8.1,15.4,43,0.00,,CLR,0.00,VWS V14.01,2013-03-05 17:35:00,
2013-03-05 12:40:00,37.4,16.4,30.03,ENE,68,10.7,15.4,42,0.00,,CLR,0.00,VWS V14.01,2013-03-05 17:40:00,
2013-03-05 12:45:00,36.9,15.9,30.03,ENE,68,11.0,15.4,42,0.00,,CLR,0.00,VWS V14.01,2013-03-05 17:45:00,
2013-03-05 12:50:00,37.4,17.5,30.00,ENE,68,10.5,15.4,44,0.00,,CLR,0.00,VWS V14.01,2013-03-05 17:50:00,
2013-03-05 12:55:00,37.8,17.8,30.00,ENE,68,11.4,15.4,44,0.00,,CLR,0.00,VWS V14.01,2013-03-05 17:55:00,
2013-03-05 13:00:00,36.9,17.0,30.00,ENE,68,14.5,15.4,44,0.00,,CLR,0.00,VWS V14.01,2013-03-05 18:00:00,
2013-03-05 13:05:00,37.6,17.7,30.00,ENE,68,10.1,15.4,44,0.00,,CLR,0.00,VWS V14.01,2013-03-05 18:05:00,
2013-03-05 13:10:00,37.4,17.0,30.00,ENE,68,9.0,13.2,43,0.00,,CLR,0.00,VWS V14.01,2013-03-05 18:10:00,
2013-03-05 13:15:00,38.1,17.6,30.00,East,90,13.0,13.2,43,0.00,,CLR,0.00,VWS V14.01,2013-03-05 18:15:00,
2013-03-05 13:20:00,38.7,17.6,30.00,ENE,68,8.7,13.2,42,0.00,,CLR,0.00,VWS V14.01,2013-03-05 18:20:00,
2013-03-05 13:25:00,39.0,17.3,30.00,East,90,11.9,13.2,41,0.00,,CLR,0.00,VWS V14.01,2013-03-05 18:25:00,
2013-03-05 13:30:00,40.3,17.9,30.00,East,90,6.0,13.2,40,0.00,,CLR,0.00,VWS V14.01,2013-03-05 18:30:00,
2013-03-05 13:35:00,40.1,17.7,29.97,East,90,6.5,13.2,40,0.00,,CLR,0.00,VWS V14.01,2013-03-05 18:35:00,
2013-03-05 13:40:00,38.5,16.8,29.97,East,90,10.1,13.6,41,0.00,,CLR,0.00,VWS V14.01,2013-03-05 18:40:00,
2013-03-05 13:45:00,39.4,17.1,29.97,ENE,68,8.1,13.6,40,0.00,,CLR,0.00,VWS V14.01,2013-03-05 18:45:00,
2013-03-05 13:50:00,38.5,17.4,29.97,East,90,10.7,13.6,42,0.00,,CLR,0.00,VWS V14.01,2013-03-05 18:50:00,
2013-03-05 13:55:00,38.5,17.4,29.97,East,90,13.0,13.6,42,0.00,,CLR,0.00,VWS V14.01,2013-03-05 18:55:00,
2013-03-05 14:00:00,38.8,17.7,29.97,ENE,68,11.4,13.6,42,0.00,,CLR,0.00,VWS V14.01,2013-03-05 19:00:00,
2013-03-05 14:06:00,38.7,18.1,29.94,ENE,68,10.5,13.6,43,0.00,,CLR,0.00,VWS V14.01,2013-03-05 19:06:00,
2013-03-05 14:11:00,38.8,17.7,29.94,ENE,68,11.0,11.0,42,0.00,,CLR,0.00,VWS V14.01,2013-03-05 19:11:00,
2013-03-05 14:13:00,38.3,17.8,29.94,ENE,68,13.6,15.9,43,0.00,,CLR,0.00,VWS V14.01,2013-03-05 19:13:00,
2013-03-05 14:16:00,38.1,17.6,29.94,NE,45,12.1,15.9,43,0.00,,CLR,0.00,VWS V14.01,2013-03-05 19:16:00,
2013-03-05 14:21:00,38.3,17.8,29.94,ENE,68,12.8,15.9,43,0.00,,CLR,0.00,VWS V14.01,2013-03-05 19:21:00,
2013-03-05 14:26:00,37.4,17.0,29.94,ENE,68,12.8,16.8,43,0.00,,CLR,0.00,VWS V14.01,2013-03-05 19:26:00,
2013-03-05 14:31:00,37.4,17.5,29.91,East,90,15.2,17.5,44,0.00,,CLR,0.00,VWS V14.01,2013-03-05 19:31:00,
2013-03-05 14:36:00,37.4,17.5,29.91,ENE,68,14.8,17.5,44,0.00,,CLR,0.00,VWS V14.01,2013-03-05 19:36:00,
2013-03-05 14:41:00,38.3,18.3,29.91,ENE,68,7.8,17.5,44,0.00,,CLR,0.00,VWS V14.01,2013-03-05 19:41:00,
2013-03-05 14:46:00,39.4,17.7,29.94,ENE,68,12.5,17.5,41,0.00,,CLR,0.00,VWS V14.01,2013-03-05 19:46:00,
2013-03-05 14:51:00,39.2,17.5,29.94,ENE,68,10.1,17.5,41,0.00,,CLR,0.00,VWS V14.01,2013-03-05 19:51:00,
2013-03-05 14:56:00,39.6,18.4,29.94,East,90,12.5,17.5,42,0.00,,CLR,0.00,VWS V14.01,2013-03-05 19:56:00,
2013-03-05 15:00:00,34.3,18.1,29.91,ENE,68,13.4,18.6,51,0.00,,CLR,0.00,VWS V14.01,2013-03-05 20:00:00,
2013-03-05 15:01:00,38.8,18.3,29.94,ENE,68,9.6,17.5,43,0.00,,CLR,0.00,VWS V14.01,2013-03-05 20:01:00,
2013-03-05 15:06:00,38.3,17.8,29.94,East,90,10.3,17.5,43,0.00,,CLR,0.00,VWS V14.01,2013-03-05 20:06:00,
2013-03-05 15:11:00,39.2,17.5,29.94,ESE,112,9.6,13.4,41,0.00,,CLR,0.00,VWS V14.01,2013-03-05 20:11:00,
2013-03-05 15:16:00,39.9,18.7,29.91,ESE,112,7.4,13.4,42,0.00,,CLR,0.00,VWS V14.01,2013-03-05 20:16:00,
2013-03-05 15:21:00,38.8,18.8,29.91,ENE,68,13.4,14.1,44,0.00,,CLR,0.00,VWS V14.01,2013-03-05 20:21:00,
2013-03-05 15:26:00,38.5,17.9,29.91,East,90,11.0,16.3,43,0.00,,CLR,0.00,VWS V14.01,2013-03-05 20:26:00,
2013-03-05 15:31:00,38.8,19.8,29.91,ENE,68,10.5,16.3,46,0.00,,CLR,0.00,VWS V14.01,2013-03-05 20:31:00,
2013-03-05 15:36:00,37.6,18.7,29.91,ENE,68,10.1,16.8,46,0.00,,CLR,0.00,VWS V14.01,2013-03-05 20:36:00,
2013-03-05 15:41:00,35.8,19.0,29.91,East,90,10.5,16.8,50,0.00,,CLR,0.00,VWS V14.01,2013-03-05 20:41:00,
2013-03-05 15:46:00,35.1,19.2,29.91,ENE,68,13.0,16.8,52,0.00,,CLR,0.00,VWS V14.01,2013-03-05 20:46:00,
2013-03-05 15:51:00,35.8,19.9,29.91,ENE,68,13.2,16.8,52,0.00,,CLR,0.00,VWS V14.01,2013-03-05 20:51:00,
2013-03-05 15:57:00,35.1,19.2,29.91,ENE,68,11.0,18.1,52,0.00,,CLR,0.00,VWS V14.01,2013-03-05 20:57:00,
2013-03-05 16:00:00,31.1,16.8,29.91,ENE,68,17.7,19.7,55,0.00,,CLR,0.00,VWS V14.01,2013-03-05 21:00:00,
2013-03-05 16:02:00,34.9,19.5,29.91,ENE,68,13.2,18.6,53,0.00,,CLR,0.00,VWS V14.01,2013-03-05 21:02:00,
2013-03-05 16:07:00,34.3,18.1,29.91,ENE,68,13.6,18.6,51,0.00,,CLR,0.00,VWS V14.01,2013-03-05 21:07:00,
2013-03-05 16:12:00,33.8,17.6,29.91,ENE,68,17.7,18.1,51,0.00,,CLR,0.00,VWS V14.01,2013-03-05 21:12:00,
2013-03-05 16:17:00,34.0,18.2,29.94,NNE,22,14.3,19.2,52,0.00,,CLR,0.00,VWS V14.01,2013-03-05 21:17:00,
2013-03-05 16:22:00,34.0,18.2,29.94,ENE,68,15.7,19.2,52,0.00,,CLR,0.00,VWS V14.01,2013-03-05 21:22:00,
2013-03-05 16:27:00,33.8,17.1,29.94,ENE,68,15.4,19.7,50,0.00,,CLR,0.00,VWS V14.01,2013-03-05 21:27:00,
2013-03-05 16:32:00,33.8,17.6,29.91,ENE,68,12.5,19.7,51,0.00,,CLR,0.00,VWS V14.01,2013-03-05 21:32:00,
2013-03-05 16:37:00,34.0,18.2,29.91,ENE,68,12.3,19.7,52,0.00,,CLR,0.00,VWS V14.01,2013-03-05 21:37:00,
2013-03-05 16:42:00,33.4,17.7,29.91,ENE,68,12.3,19.7,52,0.00,,CLR,0.00,VWS V14.01,2013-03-05 21:42:00,
2013-03-05 16:47:00,32.5,16.9,29.91,ENE,68,12.3,19.7,52,0.00,,CLR,0.00,VWS V14.01,2013-03-05 21:47:00,
2013-03-05 16:52:00,32.0,16.8,29.91,NE,45,10.5,19.7,53,0.00,,CLR,0.00,VWS V14.01,2013-03-05 21:52:00,
2013-03-05 16:57:00,31.5,16.3,29.91,ENE,68,15.2,19.7,53,0.00,,CLR,0.00,VWS V14.01,2013-03-05 21:57:00,
2013-03-05 17:00:00,28.0,17.1,29.91,NE,45,11.0,21.0,63,0.00,,CLR,0.00,VWS V14.01,2013-03-05 22:00:00,
2013-03-05 17:02:00,31.3,16.6,29.91,ENE,68,15.2,19.7,54,0.00,,CLR,0.00,VWS V14.01,2013-03-05 22:02:00,
2013-03-05 17:07:00,31.1,16.8,29.91,ENE,68,17.7,19.7,55,0.00,,CLR,0.00,VWS V14.01,2013-03-05 22:07:00,
2013-03-05 17:12:00,30.9,17.1,29.91,NE,45,14.1,17.7,56,0.00,,CLR,0.00,VWS V14.01,2013-03-05 22:12:00,
2013-03-05 17:18:00,30.7,16.9,29.91,NE,45,14.8,17.7,56,0.00,,CLR,0.00,VWS V14.01,2013-03-05 22:18:00,
2013-03-05 17:23:00,30.2,16.8,29.91,ENE,68,15.9,19.0,57,0.00,,CLR,0.00,VWS V14.01,2013-03-05 22:23:00,
2013-03-05 17:28:00,30.0,17.0,29.91,ENE,68,14.8,21.0,58,0.00,,CLR,0.00,VWS V14.01,2013-03-05 22:28:00,
2013-03-05 17:33:00,29.8,16.9,29.91,ENE,68,13.2,21.0,58,0.00,,CLR,0.00,VWS V14.01,2013-03-05 22:33:00,
2013-03-05 17:38:00,29.3,16.8,29.91,ENE,68,14.3,21.0,59,0.00,,CLR,0.00,VWS V14.01,2013-03-05 22:38:00,
2013-03-05 17:43:00,29.1,16.6,29.91,ENE,68,13.2,21.0,59,0.00,,CLR,0.00,VWS V14.01,2013-03-05 22:43:00,
2013-03-05 17:48:00,28.9,16.8,29.91,ENE,68,12.5,21.0,60,0.00,,CLR,0.00,VWS V14.01,2013-03-05 22:48:00,
2013-03-05 17:53:00,28.8,17.0,29.91,NE,45,13.0,21.0,61,0.00,,CLR,0.00,VWS V14.01,2013-03-05 22:53:00,
2013-03-05 17:58:00,28.6,17.2,29.91,NE,45,10.5,21.0,62,0.00,,CLR,0.00,VWS V14.01,2013-03-05 22:58:00,
2013-03-05 18:00:00,26.6,18.1,29.91,NE,45,10.7,17.9,70,0.00,,CLR,0.00,VWS V14.01,2013-03-05 23:00:00,
2013-03-05 18:03:00,28.2,17.3,29.91,ENE,68,13.9,21.0,63,0.00,,CLR,0.00,VWS V14.01,2013-03-05 23:03:00,
2013-03-05 18:08:00,27.9,16.9,29.91,NE,45,15.7,15.7,63,0.00,,CLR,0.00,VWS V14.01,2013-03-05 23:08:00,
2013-03-05 18:13:00,27.9,16.9,29.91,NE,45,13.4,17.2,63,0.00,,CLR,0.00,VWS V14.01,2013-03-05 23:13:00,
2013-03-05 18:18:00,27.7,17.1,29.91,ENE,68,14.8,17.2,64,0.00,,CLR,0.00,VWS V14.01,2013-03-05 23:18:00,
2013-03-05 18:24:00,27.5,17.3,29.91,ENE,68,13.0,17.2,65,0.00,,CLR,0.00,VWS V14.01,2013-03-05 23:24:00,
2013-03-05 18:29:00,27.5,17.6,29.91,ENE,68,11.2,17.2,66,0.00,,CLR,0.00,VWS V14.01,2013-03-05 23:29:00,
2013-03-05 18:34:00,27.3,17.8,29.91,ENE,68,8.7,17.2,67,0.00,,CLR,0.00,VWS V14.01,2013-03-05 23:34:00,
2013-03-05 18:39:00,27.1,17.6,29.91,NE,45,14.5,17.5,67,0.00,,CLR,0.00,VWS V14.01,2013-03-05 23:39:00,
2013-03-05 18:44:00,27.1,17.6,29.91,ENE,68,13.6,17.9,67,0.00,,CLR,0.00,VWS V14.01,2013-03-05 23:44:00,
2013-03-05 18:49:00,27.0,17.8,29.94,ENE,68,11.0,17.9,68,0.00,,CLR,0.00,VWS V14.01,2013-03-05 23:49:00,
2013-03-05 18:54:00,27.0,17.8,29.94,ENE,68,13.2,17.9,68,0.00,,CLR,0.00,VWS V14.01,2013-03-05 23:54:00,
2013-03-05 18:59:00,26.8,17.6,29.94,NE,45,15.4,17.9,68,0.00,,CLR,0.00,VWS V14.01,2013-03-05 23:59:00,
2013-03-05 19:00:00,25.7,18.3,29.94,ENE,68,14.3,19.7,73,0.00,,CLR,0.00,VWS V14.01,2013-03-06 00:00:00,
2013-03-05 19:04:00,26.6,17.8,29.91,ENE,68,10.7,17.9,69,0.00,,CLR,0.00,VWS V14.01,2013-03-06 00:04:00,
2013-03-05 19:09:00,26.6,18.1,29.91,ENE,68,11.4,15.4,70,0.00,,CLR,0.00,VWS V14.01,2013-03-06 00:09:00,
2013-03-05 19:14:00,26.4,18.0,29.91,ENE,68,12.8,15.9,70,0.00,,CLR,0.00,VWS V14.01,2013-03-06 00:14:00,
2013-03-05 19:19:00,26.4,17.6,29.91,ENE,68,15.4,18.8,69,0.00,,CLR,0.00,VWS V14.01,2013-03-06 00:19:00,
2013-03-05 19:24:00,26.2,18.1,29.91,ENE,68,12.5,18.8,71,0.00,,CLR,0.00,VWS V14.01,2013-03-06 00:24:00,
2013-03-05 19:29:00,26.1,18.3,29.91,ENE,68,15.7,18.8,72,0.00,,CLR,0.00,VWS V14.01,2013-03-06 00:29:00,
2013-03-05 19:34:00,26.1,18.3,29.91,NE,45,14.1,18.8,72,0.00,,CLR,0.00,VWS V14.01,2013-03-06 00:34:00,
2013-03-05 19:39:00,26.1,18.0,29.91,ENE,68,17.2,19.7,71,0.00,,CLR,0.00,VWS V14.01,2013-03-06 00:39:00,
2013-03-05 19:44:00,26.1,18.3,29.91,NE,45,12.3,19.7,72,0.00,,CLR,0.00,VWS V14.01,2013-03-06 00:44:00,
2013-03-05 19:49:00,25.9,18.1,29.94,NE,45,12.5,19.7,72,0.00,,CLR,0.00,VWS V14.01,2013-03-06 00:49:00,
2013-03-05 19:54:00,25.9,18.1,29.94,NE,45,12.8,19.7,72,0.00,,CLR,0.00,VWS V14.01,2013-03-06 00:54:00,
2013-03-05 19:59:00,25.9,18.4,29.94,ENE,68,13.2,19.7,73,0.00,,CLR,0.00,VWS V14.01,2013-03-06 00:59:00,
2013-03-05 20:00:00,25.7,18.9,29.94,NE,45,12.8,21.5,75,0.00,,CLR,0.00,VWS V14.01,2013-03-06 01:00:00,
2013-03-05 20:04:00,25.9,18.4,29.94,ENE,68,14.8,19.7,73,0.00,,CLR,0.00,VWS V14.01,2013-03-06 01:04:00,
2013-03-05 20:09:00,25.7,18.3,29.94,ENE,68,17.7,21.5,73,0.00,,CLR,0.00,VWS V14.01,2013-03-06 01:09:00,
2013-03-05 20:14:00,25.7,18.9,29.94,ENE,68,17.7,21.5,75,0.00,,CLR,0.00,VWS V14.01,2013-03-06 01:14:00,
2013-03-05 20:20:00,25.7,18.6,29.94,ENE,68,14.3,21.5,74,0.00,,CLR,0.00,VWS V14.01,2013-03-06 01:20:00,
2013-03-05 20:25:00,25.7,18.6,29.94,NE,45,14.8,21.5,74,0.00,,CLR,0.00,VWS V14.01,2013-03-06 01:25:00,
2013-03-05 20:30:00,25.7,18.6,29.94,ENE,68,15.9,21.5,74,0.00,,CLR,0.00,VWS V14.01,2013-03-06 01:30:00,
2013-03-05 20:35:00,25.5,18.4,29.94,ENE,68,13.2,21.5,74,0.00,,CLR,0.00,VWS V14.01,2013-03-06 01:35:00,
2013-03-05 20:40:00,25.5,18.4,29.94,ENE,68,9.8,21.5,74,0.00,,CLR,0.00,VWS V14.01,2013-03-06 01:40:00,
2013-03-05 20:45:00,25.7,18.9,29.94,NE,45,8.1,21.5,75,0.00,,CLR,0.00,VWS V14.01,2013-03-06 01:45:00,
2013-03-05 20:50:00,25.7,18.6,29.94,NE,45,17.7,21.5,74,0.00,,CLR,0.00,VWS V14.01,2013-03-06 01:50:00,
2013-03-05 20:55:00,25.5,18.4,29.94,NE,45,14.3,21.5,74,0.00,,CLR,0.00,VWS V14.01,2013-03-06 01:55:00,
2013-03-05 21:00:00,25.5,18.4,29.94,ENE,68,12.5,21.5,74,0.00,,CLR,0.00,VWS V14.01,2013-03-06 02:00:00,
2013-03-05 21:05:00,25.7,18.9,29.94,NE,45,7.8,21.5,75,0.00,,CLR,0.00,VWS V14.01,2013-03-06 02:05:00,
2013-03-05 21:10:00,25.7,18.9,29.94,NNE,22,11.0,13.9,75,0.00,,CLR,0.00,VWS V14.01,2013-03-06 02:10:00,
2013-03-05 21:15:00,25.7,18.9,29.94,NNE,22,13.0,13.9,75,0.00,,CLR,0.00,VWS V14.01,2013-03-06 02:15:00,
2013-03-05 21:20:00,25.9,19.1,29.94,NNE,22,12.1,14.3,75,0.00,,CLR,0.00,VWS V14.01,2013-03-06 02:20:00,
2013-03-05 21:25:00,25.9,19.4,29.94,NNE,22,11.0,14.3,76,0.00,,CLR,0.00,VWS V14.01,2013-03-06 02:25:00,
2013-03-05 21:31:00,25.9,19.4,29.94,NNE,22,11.0,14.8,76,0.00,,CLR,0.00,VWS V14.01,2013-03-06 02:31:00,
2013-03-05 21:36:00,26.1,19.2,29.94,NE,45,12.5,17.7,75,0.00,,CLR,0.00,VWS V14.01,2013-03-06 02:36:00,
2013-03-05 21:41:00,26.1,19.5,29.94,NNE,22,12.8,17.7,76,0.00,,CLR,0.00,VWS V14.01,2013-03-06 02:41:00,
2013-03-05 21:46:00,26.1,19.5,29.94,NNE,22,10.7,17.7,76,0.00,,CLR,0.00,VWS V14.01,2013-03-06 02:46:00,
2013-03-05 21:51:00,26.2,19.7,29.97,NE,45,10.5,17.7,76,0.00,,CLR,0.00,VWS V14.01,2013-03-06 02:51:00,
2013-03-05 21:56:00,26.2,20.0,29.97,NNE,22,11.0,17.7,77,0.00,,CLR,0.00,VWS V14.01,2013-03-06 02:56:00,
2013-03-05 22:00:00,26.1,21.0,29.97,NNE,22,12.5,16.1,81,0.00,,CLR,0.00,VWS V14.01,2013-03-06 03:00:00,
2013-03-05 22:01:00,26.4,19.9,29.97,NE,45,13.0,17.7,76,0.00,,CLR,0.00,VWS V14.01,2013-03-06 03:01:00,
2013-03-05 22:06:00,26.4,19.9,29.97,NNE,22,13.2,17.7,76,0.00,,CLR,0.00,VWS V14.01,2013-03-06 03:06:00,
2013-03-05 22:11:00,26.4,19.9,29.97,NE,45,13.0,14.1,76,0.00,,CLR,0.00,VWS V14.01,2013-03-06 03:11:00,
2013-03-05 22:16:00,26.4,19.9,29.97,NNE,22,9.8,14.1,76,0.00,,CLR,0.00,VWS V14.01,2013-03-06 03:16:00,
2013-03-05 22:21:00,26.4,20.2,29.97,NNE,22,8.5,14.1,77,0.00,,CLR,0.00,VWS V14.01,2013-03-06 03:21:00,
2013-03-05 22:26:00,26.4,20.2,29.97,NNE,22,12.5,15.2,77,0.00,,CLR,0.00,VWS V14.01,2013-03-06 03:26:00,
2013-03-05 22:31:00,26.4,20.5,29.97,NE,45,10.3,15.2,78,0.00,,CLR,0.00,VWS V14.01,2013-03-06 03:31:00,
2013-03-05 22:36:00,26.4,20.5,29.97,NNE,22,8.7,16.1,78,0.00,,CLR,0.00,VWS V14.01,2013-03-06 03:36:00,
2013-03-05 22:41:00,26.1,20.1,29.97,NE,45,10.7,16.1,78,0.00,,CLR,0.00,VWS V14.01,2013-03-06 03:41:00,
2013-03-05 22:46:00,26.2,20.6,29.97,NNE,22,10.7,16.1,79,0.00,,CLR,0.00,VWS V14.01,2013-03-06 03:46:00,
2013-03-05 22:52:00,26.1,20.5,29.97,NNE,22,12.8,16.1,79,0.00,,CLR,0.00,VWS V14.01,2013-03-06 03:52:00,
2013-03-05 22:57:00,26.1,20.8,29.97,NNE,22,7.6,16.1,80,0.00,,CLR,0.00,VWS V14.01,2013-03-06 03:57:00,
2013-03-05 23:00:00,26.2,22.1,29.97,NNE,22,7.6,14.8,84,0.00,,CLR,0.00,VWS V14.01,2013-03-06 04:00:00,
2013-03-05 23:02:00,25.9,20.6,29.97,NNE,22,8.1,16.1,80,0.00,,CLR,0.00,VWS V14.01,2013-03-06 04:02:00,
2013-03-05 23:07:00,26.1,21.0,29.97,NE,45,11.0,16.1,81,0.00,,CLR,0.00,VWS V14.01,2013-03-06 04:07:00,
2013-03-05 23:12:00,26.2,21.5,29.97,NNE,22,10.3,12.5,82,0.00,,CLR,0.00,VWS V14.01,2013-03-06 04:12:00,
2013-03-05 23:17:00,26.4,22.0,29.97,NNE,22,12.1,13.2,83,0.00,,CLR,0.00,VWS V14.01,2013-03-06 04:17:00,
2013-03-05 23:22:00,26.2,21.2,29.97,NNE,22,10.7,14.8,81,0.00,,CLR,0.00,VWS V14.01,2013-03-06 04:22:00,
2013-03-05 23:27:00,26.2,21.5,29.97,NNE,22,11.0,14.8,82,0.00,,CLR,0.00,VWS V14.01,2013-03-06 04:27:00,
2013-03-05 23:32:00,26.2,21.5,29.97,NNE,22,12.5,14.8,82,0.00,,CLR,0.00,VWS V14.01,2013-03-06 04:32:00,
2013-03-05 23:37:00,26.2,21.5,29.97,NNE,22,14.8,14.8,82,0.00,,CLR,0.00,VWS V14.01,2013-03-06 04:37:00,
2013-03-05 23:42:00,26.2,21.5,29.97,North,0,9.6,14.8,82,0.00,,CLR,0.00,VWS V14.01,2013-03-06 04:42:00,
2013-03-05 23:47:00,26.1,21.3,29.97,NNE,22,10.3,14.8,82,0.00,,CLR,0.00,VWS V14.01,2013-03-06 04:47:00,
2013-03-05 23:52:00,26.2,22.1,29.97,NNE,22,11.0,14.8,84,0.00,,CLR,0.00,VWS V14.01,2013-03-06 04:52:00,
2013-03-05 23:57:00,26.2,22.1,29.97,NNE,22,8.5,14.8,84,0.00,,CLR,0.00,VWS V14.01,2013-03-06 04:57:00,